Time;durP1;ratioP1;P1;durP2;ratioP2;P2;SDS_P1;SDS_P2;PMS_P1;PMS_P2;Temp;Humidity;BMP_temperature;BMP_pressure;BME280_temperature;BME280_humidity;BME280_pressure;Samples;Min_cycle;Max_cycle;Signal;HPM_P1;HPM_P2
2022/10/05 00:02:20;;;;;;;;;;;;;;;-142.75;100.00;76839.97;5072316;28;20387;-69
2022/10/05 00:04:55;;;;;;;;;;;;;;;-142.75;100.00;76857.69;5072420;28;19935;-68
2022/10/05 00:07:21;;;;;;;;;;;;;;;-142.75;100.00;76855.72;5071967;28;19997;-69
2022/10/05 00:09:51;;;;;;;;;;;;;;;-142.75;100.00;76859.66;5072207;28;19923;-69
2022/10/05 00:12:17;;;;;;;;;;;;;;;-142.75;100.00;76861.63;5072109;28;19923;-69
2022/10/05 00:14:43;;;;;;;;;;;;;;;-142.75;100.00;76865.56;5071034;28;19919;-69
2022/10/05 00:17:13;;;;;;;;;;;;;;;-142.75;100.00;76863.59;5071992;28;19999;-69
2022/10/05 00:19:38;;;;;;;;;;;;;;;-142.75;100.00;76861.63;5072237;28;19919;-69
2022/10/05 00:22:15;;;;;;;;;;;;;;;-142.75;100.00;76861.63;5072089;28;19916;-70
2022/10/05 00:24:41;;;;;;;;;;;;;;;-142.75;100.00;76849.81;5070904;28;19916;-68
2022/10/05 00:27:13;;;;;;;;;;;;;;;-142.75;100.00;76849.81;5071867;28;19917;-69
2022/10/05 00:29:38;;;;;;;;;;;;;;;-142.75;100.00;76853.75;5070890;28;19919;-70
2022/10/05 00:32:03;;;;;;;;;;;;;;;-142.75;100.00;76845.88;5070843;28;20380;-68
2022/10/05 00:34:32;;;;;;;;;;;;;;;-142.75;100.00;76845.88;5072030;28;19916;-68
2022/10/05 00:36:57;;;;;;;;;;;;;;;-142.75;100.00;76849.81;5071701;28;19962;-69
2022/10/05 00:39:22;;;;;;;;;;;;;;;-142.75;100.00;76839.97;5071997;28;19912;-68
2022/10/05 00:42:02;;;;;;;;;;;;;;;-142.75;100.00;76836.03;5071931;28;20011;-69
2022/10/05 00:44:47;;;;;;;;;;;;;;;-142.75;100.00;76836.03;5070612;28;20006;-68
2022/10/05 00:47:12;;;;;;;;;;;;;;;-142.75;100.00;76838.00;5070361;28;19916;-68
2022/10/05 00:49:52;;;;;;;;;;;;;;;-142.75;100.00;76834.06;5070563;28;19913;-68
2022/10/05 00:52:36;;;;;;;;;;;;;;;-142.75;100.00;76830.13;5071815;28;19912;-69
2022/10/05 00:55:08;;;;;;;;;;;;;;;-142.75;100.00;76838.00;5071963;28;20421;-68
2022/10/05 00:57:48;;;;;;;;;;;;;;;-142.75;100.00;76841.94;5072037;28;19912;-68
2022/10/05 01:00:18;;;;;;;;;;;;;;;-142.75;100.00;76839.97;5074556;28;19966;-68
2022/10/05 01:03:02;;;;;;;;;;;;;;;-142.75;100.00;76830.13;5075668;28;20373;-68
2022/10/05 01:05:27;;;;;;;;;;;;;;;-142.75;100.00;76832.09;5075565;28;19912;-68
2022/10/05 01:08:00;;;;;;;;;;;;;;;-142.75;100.00;76834.06;5075420;28;19966;-68
2022/10/05 01:10:32;;;;;;;;;;;;;;;-142.75;100.00;76845.88;5075564;28;19919;-68
2022/10/05 01:13:21;;;;;;;;;;;;;;;-142.75;100.00;76847.84;5074099;28;20007;-68
2022/10/05 01:15:50;;;;;;;;;;;;;;;-142.75;100.00;76845.88;5055772;28;20354;-68
2022/10/05 01:18:15;;;;;;;;;;;;;;;-142.75;100.00;76851.78;5075110;28;19913;-68
2022/10/05 01:20:58;;;;;;;;;;;;;;;-142.75;100.00;76849.81;5075254;28;20373;-68
2022/10/05 01:23:23;;;;;;;;;;;;;;;-142.75;100.00;76849.81;5075278;28;19916;-68
2022/10/05 01:25:54;;;;;;;;;;;;;;;-142.75;100.00;76851.78;5075205;28;19922;-68
2022/10/05 01:28:25;;;;;;;;;;;;;;;-142.75;100.00;76855.72;5075035;28;19912;-68
2022/10/05 01:30:54;;;;;;;;;;;;;;;-142.75;100.00;76857.69;5075237;28;19966;-68
2022/10/05 01:33:38;;;;;;;;;;;;;;;-142.75;100.00;76869.50;5073643;28;19912;-68
2022/10/05 01:36:14;;;;;;;;;;;;;;;-142.75;100.00;76865.56;5073754;28;19919;-68
2022/10/05 01:38:46;;;;;;;;;;;;;;;-142.75;100.00;76863.59;5074801;28;19912;-70
2022/10/05 01:41:11;;;;;;;;;;;;;;;-142.75;100.00;76865.56;5075014;28;19919;-69
2022/10/05 01:43:40;;;;;;;;;;;;;;;-142.75;100.00;76857.69;5073561;28;20305;-68
2022/10/05 01:46:13;;;;;;;;;;;;;;;-142.75;100.00;76867.53;5074835;28;19969;-70
2022/10/05 01:48:50;;;;;;;;;;;;;;;-142.75;100.00;76863.59;5074847;28;19917;-68
2022/10/05 01:51:25;;;;;;;;;;;;;;;-142.75;100.00;76857.69;5073515;28;20007;-68
2022/10/05 01:53:53;;;;;;;;;;;;;;;-142.75;100.00;76857.69;5074724;28;20370;-69
2022/10/05 01:56:23;;;;;;;;;;;;;;;-142.75;100.00;76861.63;5074662;28;20014;-66
2022/10/05 01:59:07;;;;;;;;;;;;;;;-142.75;100.00;76855.72;5073241;28;19912;-69
2022/10/05 02:01:33;;;;;;;;;;;;;;;-142.75;100.00;76857.69;5074589;28;19919;-69
2022/10/05 02:04:03;;;;;;;;;;;;;;;-142.75;100.00;76843.91;5073367;28;19912;-69
2022/10/05 02:06:36;;;;;;;;;;;;;;;-142.75;100.00;76838.00;5072977;28;19921;-68
2022/10/05 02:09:07;;;;;;;;;;;;;;;-142.75;100.00;76847.84;5074504;28;19916;-69
2022/10/05 02:11:33;;;;;;;;;;;;;;;-142.75;100.00;76839.97;5072699;28;20289;-68
2022/10/05 02:14:01;;;;;;;;;;;;;;;-142.75;100.00;76843.91;5073185;28;19912;-68
2022/10/05 02:16:40;;;;;;;;;;;;;;;-142.75;100.00;76847.84;5074296;28;19919;-68
2022/10/05 02:19:22;;;;;;;;;;;;;;;-142.75;100.00;76832.09;5072924;28;19995;-68
2022/10/05 02:21:50;;;;;;;;;;;;;;;-142.75;100.00;76845.88;5072879;28;19958;-69
2022/10/05 02:24:23;;;;;;;;;;;;;;;-142.75;100.00;76830.13;5074259;28;19912;-68
2022/10/05 02:26:51;;;;;;;;;;;;;;;-142.75;100.00;76822.25;5073822;28;20403;-69
2022/10/05 02:29:17;;;;;;;;;;;;;;;-142.75;100.00;76838.00;5074084;28;19952;-68
2022/10/05 02:31:46;;;;;;;;;;;;;;;-142.75;100.00;76838.00;5072659;28;19916;-67
2022/10/05 02:34:21;;;;;;;;;;;;;;;-142.75;100.00;76832.09;5074009;28;19919;-68
2022/10/05 02:36:50;;;;;;;;;;;;;;;-142.75;100.00;76824.22;5073677;28;19964;-68
2022/10/05 02:39:31;;;;;;;;;;;;;;;-142.75;100.00;76838.00;5073889;28;20274;-68
2022/10/05 02:41:59;;;;;;;;;;;;;;;-142.75;100.00;76834.06;5073729;28;19920;-68
2022/10/05 02:44:36;;;;;;;;;;;;;;;-142.75;100.00;76834.06;5073868;28;19912;-68
2022/10/05 02:47:07;;;;;;;;;;;;;;;-142.75;100.00;76826.19;5072175;28;19917;-67
2022/10/05 02:49:43;;;;;;;;;;;;;;;-142.75;100.00;76824.22;5080718;22;19983;-67
2022/10/05 02:52:11;;;;;;;;;;;;;;;-142.75;100.00;76839.97;5052216;28;20023;-67
2022/10/05 02:54:57;;;;;;;;;;;;;;;-142.75;100.00;76838.00;5053098;28;20393;-67
2022/10/05 02:57:43;;;;;;;;;;;;;;;-142.75;100.00;76836.03;5035681;28;20378;-67
2022/10/05 03:00:19;;;;;;;;;;;;;;;-142.75;100.00;76830.13;4990228;28;19917;-67
2022/10/05 03:02:48;;;;;;;;;;;;;;;-142.75;100.00;76820.28;5033538;28;19920;-67
2022/10/05 03:05:30;;;;;;;;;;;;;;;-142.75;100.00;76820.28;5033453;28;19913;-67
2022/10/05 03:08:08;;;;;;;;;;;;;;;-142.75;100.00;76822.25;5033161;28;20280;-67
2022/10/05 03:10:37;;;;;;;;;;;;;;;-142.75;100.00;76820.28;5033333;28;20004;-67
2022/10/05 03:13:05;;;;;;;;;;;;;;;-142.75;100.00;76828.16;5015576;28;19994;-67
2022/10/05 03:15:30;;;;;;;;;;;;;;;-142.75;100.00;76834.06;5033290;28;19913;-67
2022/10/05 03:18:05;;;;;;;;;;;;;;;-142.75;100.00;76824.22;5032878;28;20286;-67
2022/10/05 03:21:02;;;;;;;;;;;;;;;-142.75;100.00;76810.44;5032992;28;19913;-67
2022/10/05 03:23:27;;;;;;;;;;;;;;;-142.75;100.00;76820.28;4978314;28;19913;-67
2022/10/05 03:26:11;;;;;;;;;;;;;;;-142.75;100.00;76810.44;5032984;28;19970;-67
2022/10/05 03:29:03;;;;;;;;;;;;;;;-142.75;100.00;76808.50;5032673;28;19914;-67
2022/10/05 03:31:35;;;;;;;;;;;;;;;-142.75;100.00;76814.38;5028101;28;19956;-67
2022/10/05 03:34:00;;;;;;;;;;;;;;;-142.75;100.00;76806.50;5032944;28;19913;-67
2022/10/05 03:36:35;;;;;;;;;;;;;;;-142.75;100.00;76822.25;5032777;28;19917;-67
2022/10/05 03:39:27;;;;;;;;;;;;;;;-142.75;100.00;76810.44;5015039;28;19935;-67
2022/10/05 03:41:58;;;;;;;;;;;;;;;-142.75;100.00;76818.31;4994775;28;19913;-67
2022/10/05 03:44:35;;;;;;;;;;;;;;;-142.75;100.00;76804.53;5032789;28;20318;-67
2022/10/05 03:47:10;;;;;;;;;;;;;;;-142.75;100.00;76796.69;5032320;28;19921;-67
2022/10/05 03:49:54;;;;;;;;;;;;;;;-142.75;100.00;76790.78;5032476;28;19924;-67
2022/10/05 03:52:22;;;;;;;;;;;;;;;-142.75;100.00;76786.84;5032608;28;19917;-67
2022/10/05 03:54:50;;;;;;;;;;;;;;;-142.75;100.00;76782.91;5032643;28;20331;-67
2022/10/05 03:57:23;;;;;;;;;;;;;;;-142.75;100.00;76806.50;5032267;28;19913;-67
2022/10/05 03:59:48;;;;;;;;;;;;;;;-142.75;100.00;76790.78;5032419;28;19921;-67
2022/10/05 04:02:49;;;;;;;;;;;;;;;-142.75;100.00;76794.69;5032653;28;20336;-67
2022/10/05 04:05:17;;;;;;;;;;;;;;;-142.75;100.00;76778.97;4932834;29;19922;-67
2022/10/05 04:07:55;;;;;;;;;;;;;;;-142.75;100.00;76786.84;5012855;28;19917;-67
2022/10/05 04:10:30;;;;;;;;;;;;;;;-142.75;100.00;76769.13;5032316;28;19924;-67
2022/10/05 04:13:02;;;;;;;;;;;;;;;-142.75;100.00;76778.97;5032352;28;19913;-67
2022/10/05 04:15:30;;;;;;;;;;;;;;;-142.75;100.00;76782.91;5032354;28;20383;-67
2022/10/05 04:17:59;;;;;;;;;;;;;;;-142.75;100.00;76777.00;5031960;28;19913;-67
2022/10/05 04:20:27;;;;;;;;;;;;;;;-142.75;100.00;76775.03;5032174;28;20012;-67
2022/10/05 04:22:56;;;;;;;;;;;;;;;-142.75;100.00;76771.09;5032178;28;19914;-67
2022/10/05 04:25:24;;;;;;;;;;;;;;;-142.75;100.00;76778.97;5032199;28;20380;-67
2022/10/05 04:27:53;;;;;;;;;;;;;;;-142.75;100.00;76771.09;5031833;28;19957;-67
2022/10/05 04:30:21;;;;;;;;;;;;;;;-142.75;100.00;76777.00;5032053;28;19924;-67
2022/10/05 04:32:51;;;;;;;;;;;;;;;-142.75;100.00;76771.09;5032828;28;19917;-67
2022/10/05 04:35:28;;;;;;;;;;;;;;;-142.75;100.00;76771.09;5036242;28;19913;-67
2022/10/05 04:38:12;;;;;;;;;;;;;;;-142.75;100.00;76771.09;5035950;28;19913;-67
2022/10/05 04:40:53;;;;;;;;;;;;;;;-142.75;100.00;76769.13;5036128;28;19999;-67
2022/10/05 04:43:32;;;;;;;;;;;;;;;-142.75;100.00;76767.16;5036077;28;19921;-67
2022/10/05 04:45:58;;;;;;;;;;;;;;;-142.75;100.00;76757.31;5036289;28;20156;-67
2022/10/05 04:48:43;;;;;;;;;;;;;;;-142.75;100.00;76767.16;5035738;28;20456;-67
2022/10/05 04:51:27;;;;;;;;;;;;;;;-142.75;100.00;76759.28;5035954;28;19921;-66
2022/10/05 04:54:01;;;;;;;;;;;;;;;-142.75;100.00;76755.34;5035844;28;19913;-67
2022/10/05 04:56:31;;;;;;;;;;;;;;;-142.75;100.00;76755.34;5035807;28;19913;-67
2022/10/05 04:58:59;;;;;;;;;;;;;;;-142.75;100.00;76747.47;5035741;28;19913;-67
2022/10/05 05:01:34;;;;;;;;;;;;;;;-142.75;100.00;76745.50;5035780;28;19921;-67
2022/10/05 05:04:20;;;;;;;;;;;;;;;-142.75;100.00;76751.41;5035792;28;20375;-67
2022/10/05 05:06:48;;;;;;;;;;;;;;;-142.75;100.00;76733.69;5035367;28;19918;-67
2022/10/05 05:09:32;;;;;;;;;;;;;;;-142.75;100.00;76747.47;5017812;28;19913;-67
2022/10/05 05:12:21;;;;;;;;;;;;;;;-142.75;100.00;76739.59;5035725;28;19921;-66
2022/10/05 05:15:01;;;;;;;;;;;;;;;-142.75;100.00;76733.69;5035517;28;19920;-66
2022/10/05 05:17:56;;;;;;;;;;;;;;;-142.75;100.00;76735.66;5035191;28;19913;-67
2022/10/05 05:20:39;;;;;;;;;;;;;;;-142.75;100.00;76747.47;4947555;28;20047;-67
2022/10/05 05:23:11;;;;;;;;;;;;;;;-142.75;100.00;76739.59;5035312;28;19909;-66
2022/10/05 05:25:42;;;;;;;;;;;;;;;-142.75;100.00;76735.66;5035313;28;19913;-67
2022/10/05 05:28:10;;;;;;;;;;;;;;;-142.75;100.00;76731.72;5035057;28;20000;-67
2022/10/05 05:30:44;;;;;;;;;;;;;;;-142.75;100.00;76717.94;5035150;28;19913;-67
2022/10/05 05:33:17;;;;;;;;;;;;;;;-142.75;100.00;76721.88;5035202;28;19913;-66
2022/10/05 05:35:42;;;;;;;;;;;;;;;-142.75;100.00;76721.88;5035153;28;19913;-67
2022/10/05 05:38:23;;;;;;;;;;;;;;;-142.75;100.00;76739.59;5034857;28;20024;-67
2022/10/05 05:40:58;;;;;;;;;;;;;;;-142.75;100.00;76731.72;5017248;28;20291;-67
2022/10/05 05:43:26;;;;;;;;;;;;;;;-142.75;100.00;76735.66;5035070;28;19917;-67
2022/10/05 05:46:09;;;;;;;;;;;;;;;-142.75;100.00;76731.72;5033713;28;19920;-67
2022/10/05 05:48:40;;;;;;;;;;;;;;;-142.75;100.00;76729.75;5034898;28;19913;-67
2022/10/05 05:51:08;;;;;;;;;;;;;;;-142.75;100.00;76735.66;5034791;28;19917;-66
2022/10/05 05:53:39;;;;;;;;;;;;;;;-142.75;100.00;76739.59;5034870;28;19913;-67
2022/10/05 05:56:07;;;;;;;;;;;;;;;-142.75;100.00;76733.69;5034790;28;19959;-66
2022/10/05 05:58:51;;;;;;;;;;;;;;;-142.75;100.00;76731.72;5016195;28;19917;-67
2022/10/05 06:01:23;;;;;;;;;;;;;;;-142.75;100.00;76723.84;5033024;28;19917;-67
2022/10/05 06:03:56;;;;;;;;;;;;;;;-142.75;100.00;76735.66;5034712;28;19923;-67
2022/10/05 06:06:25;;;;;;;;;;;;;;;-142.75;100.00;76719.91;5034547;28;20280;-67
2022/10/05 06:08:51;;;;;;;;;;;;;;;-142.75;100.00;76727.78;5016437;28;20287;-67
2022/10/05 06:11:36;;;;;;;;;;;;;;;-142.75;100.00;76723.84;5034629;28;19913;-67
2022/10/05 06:14:10;;;;;;;;;;;;;;;-142.75;100.00;76721.88;5034451;28;19996;-67
2022/10/05 06:16:38;;;;;;;;;;;;;;;-142.75;100.00;76725.81;5034145;28;19919;-67
2022/10/05 06:19:10;;;;;;;;;;;;;;;-142.75;100.00;76729.75;5016530;28;19996;-67
2022/10/05 06:21:38;;;;;;;;;;;;;;;-142.75;100.00;76741.56;5034302;28;19967;-67
2022/10/05 06:24:20;;;;;;;;;;;;;;;-142.75;100.00;76733.69;5034179;28;20003;-67
2022/10/05 06:27:04;;;;;;;;;;;;;;;-142.75;100.00;76743.53;5033857;28;19917;-67
2022/10/05 06:29:38;;;;;;;;;;;;;;;-142.75;100.00;76735.66;5034074;28;19913;-67
2022/10/05 06:32:03;;;;;;;;;;;;;;;-142.75;100.00;76753.38;5034257;28;19970;-67
2022/10/05 06:34:42;;;;;;;;;;;;;;;-142.75;100.00;76733.69;5016323;28;19913;-67
2022/10/05 06:37:16;;;;;;;;;;;;;;;-142.75;100.00;76743.53;5023578;28;20106;-67
2022/10/05 06:39:53;;;;;;;;;;;;;;;-142.75;100.00;76733.69;5024504;28;20458;-67
2022/10/05 06:42:24;;;;;;;;;;;;;;;-142.75;100.00;76719.91;5024414;28;19970;-67
2022/10/05 06:45:11;;;;;;;;;;;;;;;-142.75;100.00;76727.78;5020349;28;20291;-67
2022/10/05 06:47:46;;;;;;;;;;;;;;;-142.75;100.00;76731.72;5007716;28;19917;-67
2022/10/05 06:50:14;;;;;;;;;;;;;;;-142.75;100.00;76723.84;5016320;28;19918;-67
2022/10/05 06:52:54;;;;;;;;;;;;;;;-142.75;100.00;76735.66;4996230;28;20004;-67
2022/10/05 06:55:29;;;;;;;;;;;;;;;-142.75;100.00;76727.78;5003233;28;20359;-67
2022/10/05 06:58:03;;;;;;;;;;;;;;;-142.75;100.00;76729.75;5032806;28;19975;-67
2022/10/05 07:00:34;;;;;;;;;;;;;;;-142.75;100.00;76733.69;5012999;28;20354;-67
2022/10/05 07:03:08;;;;;;;;;;;;;;;-142.75;100.00;76721.88;5033080;28;19913;-67
2022/10/05 07:05:33;;;;;;;;;;;;;;;-142.75;100.00;76721.88;5007939;28;19928;-67
2022/10/05 07:08:08;;;;;;;;;;;;;;;-142.75;100.00;76719.91;5032928;28;19917;-67
2022/10/05 07:10:39;;;;;;;;;;;;;;;-142.75;100.00;76719.91;5025191;28;20406;-67
2022/10/05 07:13:16;;;;;;;;;;;;;;;-142.75;100.00;76712.03;5033103;28;20374;-67
2022/10/05 07:15:51;;;;;;;;;;;;;;;-142.75;100.00;76710.06;5026316;28;19919;-67
2022/10/05 07:18:35;;;;;;;;;;;;;;;-142.75;100.00;76704.16;5032793;28;20043;-66
2022/10/05 07:21:06;;;;;;;;;;;;;;;-142.75;100.00;76719.91;5032858;28;19913;-67
2022/10/05 07:23:31;;;;;;;;;;;;;;;-142.75;100.00;76727.78;5030756;28;20306;-66
2022/10/05 07:26:02;;;;;;;;;;;;;;;-142.75;100.00;76727.78;5032291;28;19913;-66
2022/10/05 07:28:34;;;;;;;;;;;;;;;-142.75;100.00;76712.03;5031751;28;19913;-67
2022/10/05 07:31:05;;;;;;;;;;;;;;;-142.75;100.00;76723.84;5032101;28;19917;-67
2022/10/05 07:33:37;;;;;;;;;;;;;;;-142.75;100.00;76717.94;5029323;28;19917;-67
2022/10/05 07:39:11;;;;;;;;;;;;;;;-142.75;100.00;76719.91;5028676;28;19985;-67
2022/10/05 07:41:42;;;;;;;;;;;;;;;-142.75;100.00;76715.97;5032630;28;20541;-67
2022/10/05 07:44:11;;;;;;;;;;;;;;;-142.75;100.00;76719.91;5034632;28;19913;-67
2022/10/05 07:46:46;;;;;;;;;;;;;;;-142.75;100.00;76710.06;5032296;28;19964;-68
2022/10/05 07:49:19;;;;;;;;;;;;;;;-142.75;100.00;76704.16;5032795;28;20299;-67
2022/10/05 07:51:47;;;;;;;;;;;;;;;-142.75;100.00;76715.97;5032680;28;19913;-67
2022/10/05 07:54:15;;;;;;;;;;;;;;;-142.75;100.00;76708.09;5032607;28;20007;-67
2022/10/05 07:56:42;;;;;;;;;;;;;;;-142.75;100.00;76708.09;5032282;28;19921;-67
2022/10/05 07:59:29;;;;;;;;;;;;;;;-142.75;100.00;76723.84;5032384;28;19919;-67
2022/10/05 08:02:01;;;;;;;;;;;;;;;-142.75;100.00;76714.00;5026507;28;19968;-67
2022/10/05 08:04:29;;;;;;;;;;;;;;;-142.75;100.00;76712.03;5022250;28;19914;-67
2022/10/05 08:07:00;;;;;;;;;;;;;;;-142.75;100.00;76706.13;5020584;28;20394;-67
2022/10/05 08:09:31;;;;;;;;;;;;;;;-142.75;100.00;76698.25;5021986;28;19959;-66
2022/10/05 08:12:03;;;;;;;;;;;;;;;-142.75;100.00;76708.09;5022919;28;20355;-67
2022/10/05 08:14:57;;;;;;;;;;;;;;;-142.75;100.00;76696.28;5018061;28;20446;-67
2022/10/05 08:17:31;;;;;;;;;;;;;;;-142.75;100.00;76692.34;5010596;28;19913;-68
2022/10/05 08:20:21;;;;;;;;;;;;;;;-142.75;100.00;76700.22;5017236;28;19913;-68
2022/10/05 08:22:53;;;;;;;;;;;;;;;-142.75;100.00;76700.22;5015851;28;20524;-67
2022/10/05 08:25:20;;;;;;;;;;;;;;;-142.75;100.00;76702.19;5021281;28;19979;-68
2022/10/05 08:27:53;;;;;;;;;;;;;;;-142.75;100.00;76688.41;5022742;28;20406;-67
2022/10/05 08:30:18;;;;;;;;;;;;;;;-142.75;100.00;76684.47;5020794;28;20008;-67
2022/10/05 08:32:49;;;;;;;;;;;;;;;-142.75;100.00;76670.69;5014883;28;20009;-67
2022/10/05 08:35:33;;;;;;;;;;;;;;;-142.75;100.00;76682.50;5012467;28;19920;-67
2022/10/05 08:38:00;;;;;;;;;;;;;;;-142.75;100.00;76666.75;5012203;28;20417;-67
2022/10/05 08:40:34;;;;;;;;;;;;;;;-142.75;100.00;76670.69;5012300;28;19920;-67
2022/10/05 08:43:15;;;;;;;;;;;;;;;-142.75;100.00;76658.88;5012250;28;20120;-67
2022/10/05 08:45:55;;;;;;;;;;;;;;;-142.75;100.00;76652.97;5012290;28;19918;-67
2022/10/05 08:48:30;;;;;;;;;;;;;;;-142.75;100.00;76645.09;5010829;28;20000;-67
2022/10/05 08:51:14;;;;;;;;;;;;;;;-142.75;100.00;76635.25;5065355;22;19925;-68
2022/10/05 08:53:39;;;;;;;;;;;;;;;-142.75;100.00;76617.53;5070714;28;19963;-68
2022/10/05 08:56:04;;;;;;;;;;;;;;;-142.75;100.00;76607.69;5071905;28;19940;-67
2022/10/05 08:58:42;;;;;;;;;;;;;;;-142.75;100.00;76609.66;5071538;28;20336;-68
2022/10/05 09:01:07;;;;;;;;;;;;;;;-142.75;100.00;76582.09;5069979;28;20015;-67
2022/10/05 09:03:41;;;;;;;;;;;;;;;-142.75;100.00;76588.00;5053960;28;20011;-68
2022/10/05 09:06:26;;;;;;;;;;;;;;;-142.75;100.00;76578.16;5046243;28;19929;-66
2022/10/05 09:09:14;;;;;;;;;;;;;;;-142.75;100.00;76580.13;5044127;28;19913;-68
2022/10/05 09:11:53;;;;;;;;;;;;;;;-142.75;100.00;76566.34;5053966;28;19912;-68
2022/10/05 09:14:38;;;;;;;;;;;;;;;-142.75;100.00;76570.28;5071703;28;19928;-68
2022/10/05 09:17:21;;;;;;;;;;;;;;;-142.75;100.00;76562.41;5071399;28;19951;-68
2022/10/05 09:19:51;;;;;;;;;;;;;;;-142.75;100.00;76562.41;5073870;28;19912;-68
2022/10/05 09:22:23;;;;;;;;;;;;;;;-142.75;100.00;76566.34;5075426;28;19934;-67
2022/10/05 09:24:48;;;;;;;;;;;;;;;-142.75;100.00;76576.19;5075001;28;20378;-67
2022/10/05 09:27:15;;;;;;;;;;;;;;;-142.75;100.00;76554.53;5056647;28;19964;-67
2022/10/05 09:29:59;;;;;;;;;;;;;;;-142.75;100.00;76546.66;5073701;28;19935;-68
2022/10/05 09:32:39;;;;;;;;;;;;;;;-142.75;100.00;76544.69;5074833;28;20396;-68
2022/10/05 09:35:04;;;;;;;;;;;;;;;-142.75;100.00;76538.78;5057118;28;19912;-66
2022/10/05 09:37:36;;;;;;;;;;;;;;;-142.75;100.00;76528.97;5056831;28;20397;-65
2022/10/05 09:40:01;;;;;;;;;;;;;;;-142.75;100.00;76540.75;5052989;28;20451;-65
2022/10/05 09:42:35;;;;;;;;;;;;;;;-142.75;100.00;76525.03;5062920;28;19963;-65
2022/10/05 09:45:00;;;;;;;;;;;;;;;-142.75;100.00;76538.78;5039993;28;20007;-66
2022/10/05 09:47:44;;;;;;;;;;;;;;;-142.75;100.00;76542.72;5063291;28;20063;-68
2022/10/05 09:50:28;;;;;;;;;;;;;;;-142.75;100.00;76534.84;5052629;28;19920;-67
2022/10/05 09:53:07;;;;;;;;;;;;;;;-142.75;100.00;76542.72;5068592;28;19952;-68
2022/10/05 09:55:51;;;;;;;;;;;;;;;-142.75;100.00;76552.56;5063740;28;19912;-66
2022/10/05 09:58:21;;;;;;;;;;;;;;;-142.75;100.00;76548.63;5063875;28;20375;-68
2022/10/05 10:01:09;;;;;;;;;;;;;;;-142.75;100.00;76544.69;5060171;28;19913;-68
2022/10/05 10:03:53;;;;;;;;;;;;;;;-142.75;100.00;76564.38;5008153;28;20034;-67
2022/10/05 10:06:21;;;;;;;;;;;;;;;-142.75;100.00;76562.41;5054414;28;19921;-67
2022/10/05 10:08:58;;;;;;;;;;;;;;;-142.75;100.00;76544.69;5054264;28;19919;-69
2022/10/05 10:11:38;;;;;;;;;;;;;;;-142.75;100.00;76538.78;5059173;28;19923;-69
2022/10/05 10:14:21;;;;;;;;;;;;;;;-142.75;100.00;76534.84;5072062;28;19916;-67
2022/10/05 10:16:53;;;;;;;;;;;;;;;-142.75;100.00;76532.88;5056114;28;19912;-67
2022/10/05 10:19:43;;;;;;;;;;;;;;;-142.75;100.00;76552.56;5050227;28;20319;-68
2022/10/05 10:22:09;;;;;;;;;;;;;;;-142.75;100.00;76540.75;5046290;28;19920;-68
2022/10/05 10:24:57;;;;;;;;;;;;;;;-142.75;100.00;76562.41;5045654;28;19967;-68
2022/10/05 10:27:40;;;;;;;;;;;;;;;-142.75;100.00;76556.50;5065506;28;20309;-67
2022/10/05 10:30:33;;;;;;;;;;;;;;;-142.75;100.00;76548.63;5064296;28;19920;-68
2022/10/05 10:33:12;;;;;;;;;;;;;;;-142.75;100.00;76542.72;5058485;28;19920;-68
2022/10/05 10:35:49;;;;;;;;;;;;;;;-142.75;100.00;76538.78;5041134;28;19920;-67
2022/10/05 10:38:14;;;;;;;;;;;;;;;-142.75;100.00;76542.72;5063389;28;20317;-66
2022/10/05 10:41:02;;;;;;;;;;;;;;;-142.75;100.00;76550.59;5063748;28;19932;-67
2022/10/05 10:43:30;;;;;;;;;;;;;;;-142.75;100.00;76550.59;5015634;28;19920;-67
2022/10/05 10:46:05;;;;;;;;;;;;;;;-142.75;100.00;76540.75;5056685;28;19916;-67
2022/10/05 10:48:48;;;;;;;;;;;;;;;-142.75;100.00;76532.88;5053553;28;19916;-67
2022/10/05 10:51:26;;;;;;;;;;;;;;;-142.75;100.00;76534.84;5053606;28;19917;-68
2022/10/05 10:54:02;;;;;;;;;;;;;;;-142.75;100.00;76528.97;5053686;28;19920;-68
2022/10/05 10:56:39;;;;;;;;;;;;;;;-142.75;100.00;76527.00;5053484;28;19920;-67
2022/10/05 10:59:04;;;;;;;;;;;;;;;-142.75;100.00;76519.13;5065910;28;19916;-68
2022/10/05 11:01:46;;;;;;;;;;;;;;;-142.75;100.00;76511.25;5055526;28;20019;-67
2022/10/05 11:04:39;;;;;;;;;;;;;;;-142.75;100.00;76509.28;5055539;28;19912;-68
2022/10/05 11:07:21;;;;;;;;;;;;;;;-142.75;100.00;76507.31;5073029;28;19927;-68
2022/10/05 11:09:46;;;;;;;;;;;;;;;-142.75;100.00;76497.47;5073213;28;20287;-68
2022/10/05 11:12:16;;;;;;;;;;;;;;;-142.75;100.00;76505.34;5055424;28;20007;-67
2022/10/05 11:14:57;;;;;;;;;;;;;;;-142.75;100.00;76499.44;5054947;28;19970;-68
2022/10/05 11:17:30;;;;;;;;;;;;;;;-142.75;100.00;76503.38;5064046;28;19917;-68
2022/10/05 11:20:14;;;;;;;;;;;;;;;-142.75;100.00;76499.44;5053137;28;19913;-68
2022/10/05 11:23:14;;;;;;;;;;;;;;;-142.75;100.00;76491.56;5053067;28;19920;-68
2022/10/05 11:25:51;;;;;;;;;;;;;;;-142.75;100.00;76487.63;5053097;28;20504;-68
2022/10/05 11:28:35;;;;;;;;;;;;;;;-142.75;100.00;76481.72;5052856;28;19916;-68
2022/10/05 11:31:09;;;;;;;;;;;;;;;-142.75;100.00;76481.72;5052878;28;19959;-67
2022/10/05 11:33:53;;;;;;;;;;;;;;;-142.75;100.00;76467.94;5052961;28;19956;-68
2022/10/05 11:36:37;;;;;;;;;;;;;;;-142.75;100.00;76473.84;5053046;28;19913;-68
2022/10/05 11:39:29;;;;;;;;;;;;;;;-142.75;100.00;76464.00;5052769;28;19913;-68
2022/10/05 11:41:54;;;;;;;;;;;;;;;-142.75;100.00;76460.06;5034551;28;19967;-68
2022/10/05 11:44:19;;;;;;;;;;;;;;;-142.75;100.00;76462.03;5052190;28;19913;-68
2022/10/05 11:47:00;;;;;;;;;;;;;;;-142.75;100.00;76452.19;5063537;28;20421;-67
2022/10/05 11:49:42;;;;;;;;;;;;;;;-142.75;100.00;76448.25;5039466;28;19924;-67
2022/10/05 11:52:07;;;;;;;;;;;;;;;-142.75;100.00;76444.31;5036985;28;20596;-67
2022/10/05 11:54:32;;;;;;;;;;;;;;;-142.75;100.00;76440.38;5051240;28;19916;-66
2022/10/05 11:57:02;;;;;;;;;;;;;;;-142.75;100.00;76436.44;5066412;28;19929;-68
2022/10/05 11:59:39;;;;;;;;;;;;;;;-142.75;100.00;76442.34;5041412;28;19939;-66
2022/10/05 12:02:23;;;;;;;;;;;;;;;-142.75;100.00;76424.63;5071295;28;19923;-67
2022/10/05 12:04:48;;;;;;;;;;;;;;;-142.75;100.00;76408.88;5053176;28;20000;-67
2022/10/05 12:07:20;;;;;;;;;;;;;;;-142.75;100.00;76385.25;5069662;28;20012;-68
2022/10/05 12:10:13;;;;;;;;;;;;;;;-142.75;100.00;76387.22;5071168;28;19913;-67
2022/10/05 12:12:44;;;;;;;;;;;;;;;-142.75;100.00;76401.00;5070196;28;19920;-68
2022/10/05 12:15:22;;;;;;;;;;;;;;;-142.75;100.00;76395.09;5043777;28;19964;-66
2022/10/05 12:17:51;;;;;;;;;;;;;;;-142.75;100.00;76399.03;5051869;28;19917;-67
2022/10/05 12:20:22;;;;;;;;;;;;;;;-142.75;100.00;76383.28;5071258;28;19912;-68
2022/10/05 12:23:01;;;;;;;;;;;;;;;-142.75;100.00;76369.50;5065794;28;20453;-68
2022/10/05 12:25:33;;;;;;;;;;;;;;;-142.75;100.00;76369.50;5045253;28;19913;-68
2022/10/05 12:28:03;;;;;;;;;;;;;;;-142.75;100.00;76385.25;5064949;28;19920;-68
2022/10/05 12:30:33;;;;;;;;;;;;;;;-142.75;100.00;76377.38;5058984;28;20493;-67
2022/10/05 12:33:03;;;;;;;;;;;;;;;-142.75;100.00;76363.59;5061146;28;20344;-66
2022/10/05 12:35:30;;;;;;;;;;;;;;;-142.75;100.00;76371.47;5044647;28;20011;-68
2022/10/05 12:38:09;;;;;;;;;;;;;;;-142.75;100.00;76369.50;5059775;28;19966;-68
2022/10/05 12:40:34;;;;;;;;;;;;;;;-142.75;100.00;76373.44;5061653;28;19916;-66
2022/10/05 12:43:03;;;;;;;;;;;;;;;-142.75;100.00;76361.63;5064686;28;19934;-68
2022/10/05 12:45:28;;;;;;;;;;;;;;;-142.75;100.00;76359.66;5046548;28;19923;-68
2022/10/05 12:47:59;;;;;;;;;;;;;;;-142.75;100.00;76363.59;5070688;28;19924;-68
2022/10/05 12:50:27;;;;;;;;;;;;;;;-142.75;100.00;76371.47;5066436;28;19917;-67
2022/10/05 12:53:03;;;;;;;;;;;;;;;-142.75;100.00;76371.47;5044149;28;19913;-67
2022/10/05 12:55:46;;;;;;;;;;;;;;;-142.75;100.00;76357.69;5068918;28;19920;-67
2022/10/05 12:58:20;;;;;;;;;;;;;;;-142.75;100.00;76353.78;5071834;28;19921;-67